TimeCIT,TemperatureF,Dew PointF,Humidity,Sea Level PressureIn,VisibilityMPH,Wind Direction,Wind SpeedMPH,Gust SpeedMPH,PrecipitationIn,Events,Conditions,WindDirDegrees,DateUTC
12:00 AM,77.0,75.2,94,29.80,6.2,Calm,Calm,-,N/A,,Mostly Cloudy,0,2012-10-28 16:00:00
1:00 AM,77.0,75.2,94,29.80,6.2,Calm,Calm,-,N/A,,Mostly Cloudy,0,2012-10-28 17:00:00
2:00 AM,77.0,75.2,94,29.77,6.2,WSW,1.2,-,N/A,,Mostly Cloudy,250,2012-10-28 18:00:00
3:00 AM,77.0,75.2,94,29.77,6.2,West,1.2,-,N/A,,Mostly Cloudy,280,2012-10-28 19:00:00
4:00 AM,77.0,75.2,94,29.77,6.2,SE,1.2,-,N/A,Rain,Light Rain,130,2012-10-28 20:00:00
5:00 AM,73.4,71.6,94,29.77,6.2,SSE,5.8,-,N/A,Rain,Light Rain,160,2012-10-28 21:00:00
6:00 AM,73.4,71.6,94,29.77,6.2,SSW,1.2,-,N/A,Rain,Light Rain,200,2012-10-28 22:00:00
7:00 AM,73.4,71.6,94,29.80,6.2,SE,2.3,-,N/A,Rain,Light Rain,130,2012-10-28 23:00:00
8:00 AM,75.2,73.4,94,29.83,6.2,SSE,1.2,-,N/A,Rain,Light Rain,150,2012-10-29 00:00:00
9:00 AM,77.0,75.2,94,29.86,6.2,South,1.2,-,N/A,Rain,Light Rain,170,2012-10-29 01:00:00
10:00 AM,80.6,77.0,89,29.86,6.2,South,3.5,-,N/A,Rain,Light Rain,180,2012-10-29 02:00:00
11:00 AM,82.4,77.0,84,29.83,6.2,WSW,3.5,-,N/A,,Mostly Cloudy,250,2012-10-29 03:00:00
1:00 PM,87.8,78.8,75,29.74,6.2,West,2.3,-,N/A,,Mostly Cloudy,280,2012-10-29 05:00:00
2:00 PM,87.8,78.8,75,29.71,6.2,West,3.5,-,N/A,,Mostly Cloudy,280,2012-10-29 06:00:00
3:00 PM,87.8,78.8,75,29.68,6.2,SW,2.3,-,N/A,,Mostly Cloudy,230,2012-10-29 07:00:00
4:00 PM,82.4,77.0,84,29.68,6.2,North,6.9,-,N/A,Rain,Light Rain Showers,360,2012-10-29 08:00:00
5:00 PM,78.8,77.0,94,29.68,6.2,NNW,2.3,-,N/A,,Mostly Cloudy,340,2012-10-29 09:00:00
6:00 PM,78.8,77.0,94,29.71,6.2,NNE,2.3,-,N/A,,Mostly Cloudy,30,2012-10-29 10:00:00
7:00 PM,78.8,75.2,89,29.71,6.2,NNE,1.2,-,N/A,,Mostly Cloudy,20,2012-10-29 11:00:00
8:00 PM,77.0,75.2,94,29.74,6.2,East,1.2,-,N/A,,Mostly Cloudy,100,2012-10-29 12:00:00
9:00 PM,77.0,75.2,94,29.77,6.2,Calm,Calm,-,N/A,,Mostly Cloudy,0,2012-10-29 13:00:00
10:00 PM,77.0,75.2,94,29.80,6.2,Calm,Calm,-,N/A,,Mostly Cloudy,0,2012-10-29 14:00:00
11:00 PM,77.0,75.2,94,29.80,6.2,Calm,Calm,-,N/A,,Mostly Cloudy,0,2012-10-29 15:00:00